• Join FlightAware (Why Join?)
  • Login
  • US Flag 
05:41AM EST


 

Airport Tracker/Info


-or-


 

Live Flight TrackerFlight Track Log ✈ JIA2558 ✈ 20-Apr-2012 ✈ KDSM - KCLT

Flight Track Log - Related Links

Times and Time Zones

All times are in EDT time to prevent confusion due to time zone crossing. See the JIA2558 flight status page for this flight to view local times or setup timezone preferences in your user account.

Time Position Orientation Groundspeed Altitude Reporting Facility
EDT Latitude Longitude Course Direction KTS MPH feet Rate Location/Type
08:16AM 41.5129 -93.6365 296° West  Level FlightAware Approximate
08:17AM 41.5533 -93.7464 152° Southeast 215 247 4,200  Level Minneapolis Center
08:19AM 41.4458 -93.6692 132° Southeast 260 299 8,200 2,040 Climbing Chicago Center
08:20AM 41.3903 -93.5878 147° Southeast 274 315 10,200 2,100 Climbing Chicago Center
08:21AM 41.3175 -93.5250 148° Southeast 300 345 12,500 1,740 Climbing Chicago Center
08:22AM 41.2386 -93.4592 144° Southeast 312 359 13,700 1,320 Climbing Chicago Center
08:23AM 41.1600 -93.3825 132° Southeast 338 389 15,200 1,680 Climbing Chicago Center
08:24AM 41.0906 -93.2817 132° Southeast 358 412 17,100 1,860 Climbing Chicago Center
08:25AM 41.0231 -93.1814 131° Southeast 363 418 19,000 1,560 Climbing Chicago Center
08:26AM 40.9575 -93.0814 131° Southeast 363 418 20,300 1,200 Climbing Chicago Center
08:27AM 40.8881 -92.9756 132° Southeast 363 418 21,400 1,140 Climbing Chicago Center
08:29AM 40.7325 -92.7461 133° Southeast 380 437 24,000 1,020 Climbing Kansas City Center
08:30AM 40.6603 -92.6442 134° Southeast 385 443 24,800 480 Climbing Kansas City Center
08:31AM 40.5794 -92.5342 131° Southeast 393 452 25,000 60 Climbing Kansas City Center
08:32AM 40.5044 -92.4217 131° Southeast 406 467 25,000  Level Kansas City Center
08:33AM 40.4297 -92.3094 133° Southeast 406 467 25,000 240 Level Kansas City Center
08:34AM 40.3528 -92.2031 132° Southeast 412 474 25,500 720 Climbing Kansas City Center
08:35AM 40.2733 -92.0886 132° Southeast 412 474 26,500 900 Climbing Kansas City Center
08:36AM 40.1961 -91.9772 133° Southeast 407 468 27,400 840 Climbing Kansas City Center
08:37AM 40.1231 -91.8742 133° Southeast 407 468 28,200 660 Climbing Kansas City Center
08:38AM 40.0478 -91.7683 134° Southeast 407 468 28,800 600 Climbing Kansas City Center
08:39AM 39.9681 -91.6606 131° Southeast 407 468 29,400 540 Climbing Kansas City Center
08:40AM 39.8967 -91.5553 133° Southeast 407 468 29,900 480 Climbing Kansas City Center
08:41AM 39.8214 -91.4503 133° Southeast 402 463 30,400 480 Climbing Kansas City Center
08:42AM 39.7456 -91.3456 133° Southeast 402 463 30,900 480 Climbing Kansas City Center
08:43AM 39.6697 -91.2383 133° Southeast 402 463 31,400 480 Climbing Kansas City Center
08:44AM 39.5961 -91.1367 136° Southeast 397 457 31,900 480 Climbing Kansas City Center
08:45AM 39.5161 -91.0356 132° Southeast 397 457 32,400 540 Climbing Kansas City Center
08:46AM 39.4464 -90.9339 133° Southeast 386 444 33,000 300 Climbing Kansas City Center
08:47AM 39.3725 -90.8328 133° Southeast 386 444 33,000  Level Kansas City Center
08:48AM 39.2961 -90.7269 134° Southeast 386 444 33,000  Level Kansas City Center
08:49AM 39.2200 -90.6236 132° Southeast 386 444 33,000  Level Kansas City Center
08:50AM 39.1433 -90.5153 134° Southeast 391 450 33,000  Level Kansas City Center
08:51AM 39.0628 -90.4075 134° Southeast 405 466 33,000  Level Kansas City Center
08:52AM 38.9817 -90.2997 134° Southeast 412 474 33,000  Level Kansas City Center
08:53AM 38.9008 -90.1925 133° Southeast 412 474 33,000  Level Kansas City Center
08:54AM 38.8217 -90.0850 133° Southeast 412 474 33,000  Level Kansas City Center
08:55AM 38.7428 -89.9781 134° Southeast 412 474 33,000  Level Kansas City Center
08:56AM 38.6614 -89.8714 134° Southeast 412 474 33,000  Level Kansas City Center
08:57AM 38.5889 -89.7750 134° Southeast 418 481 33,000  Level Kansas City Center
08:58AM 38.5072 -89.6661 135° Southeast 418 481 33,000  Level Kansas City Center
08:59AM 38.4214 -89.5553 135° Southeast 409 471 33,000  Level Kansas City Center
09:00AM 38.3486 -89.4619 134° Southeast 409 471 33,000  Level Kansas City Center
09:01AM 38.2625 -89.3489 135° Southeast 409 471 33,000  Level Kansas City Center
09:03AM 38.1111 -89.1556 134° Southeast 404 465 33,000  Level Memphis Center
09:04AM 38.0331 -89.0542 134° Southeast 404 465 33,000  Level Memphis Center
09:05AM 37.9550 -88.9528 134° Southeast 404 465 33,000  Level Memphis Center
09:06AM 37.8747 -88.8492 134° Southeast 404 465 33,000  Level Memphis Center
09:07AM 37.7964 -88.7483 133° Southeast 404 465 33,000  Level Memphis Center
09:08AM 37.7178 -88.6425 135° Southeast 404 465 33,000  Level Memphis Center
09:09AM 37.6414 -88.5475 135° Southeast 404 465 33,000  Level Memphis Center
09:10AM 37.5608 -88.4447 134° Southeast 404 465 33,000  Level Memphis Center
09:11AM 37.4822 -88.3419 136° Southeast 404 465 33,000  Level Memphis Center
09:12AM 37.4014 -88.2422 135° Southeast 404 465 33,000  Level Memphis Center
09:13AM 37.3203 -88.1400 135° Southeast 409 471 33,000  Level Memphis Center
09:14AM 37.2394 -88.0381 135° Southeast 418 481 33,000  Level Memphis Center
09:15AM 37.1603 -87.9389 136° Southeast 405 466 33,000  Level Memphis Center
09:16AM 37.0792 -87.8400 134° Southeast 399 459 33,000  Level Memphis Center
09:17AM 37.0022 -87.7411 136° Southeast 405 466 33,000  Level Memphis Center
09:18AM 36.9144 -87.6350 135° Southeast 405 466 33,000  Level Memphis Center
09:19AM 36.8331 -87.5342 136° Southeast 405 466 33,000  Level Memphis Center
09:20AM 36.7517 -87.4358 135° Southeast 405 466 33,000  Level Memphis Center
09:21AM 36.6742 -87.3378 136° Southeast 400 460 33,000  Level Memphis Center
09:22AM 36.5947 -87.2425 135° Southeast 400 460 33,000  Level Memphis Center
09:23AM 36.5131 -87.1425 135° Southeast 400 460 33,000  Level Memphis Center
09:24AM 36.4353 -87.0475 136° Southeast 405 466 33,000  Level Memphis Center
09:25AM 36.3556 -86.9503 103° East 394 453 33,000  Level Memphis Center
09:26AM 36.3264 -86.7944 104° East 394 453 33,000  Level Memphis Center
09:27AM 36.2972 -86.6542 104° East 411 473 33,000  Level Memphis Center
09:28AM 36.2700 -86.5164 105° East 419 482 33,000  Level Memphis Center
09:29AM 36.2406 -86.3786 105° East 419 482 33,000  Level Memphis Center
09:30AM 36.2111 -86.2386 105° East 408 470 33,000  Level Memphis Center
09:31AM 36.1814 -86.1014 105° East 415 478 33,000  Level Memphis Center
09:32AM 36.1517 -85.9617 105° East 410 472 33,000  Level Memphis Center
09:34AM 36.0969 -85.7142 105° East 396 456 33,000  Level Atlanta Center
09:35AM 36.0675 -85.5747 103° East 402 463 33,000  Level Atlanta Center
09:36AM 36.0400 -85.4331 96° East 413 475 33,000  Level Atlanta Center
09:37AM 36.0269 -85.2789 95° East 413 475 33,000  Level Atlanta Center
09:38AM 36.0158 -85.1322 96° East 413 475 33,000  Level Atlanta Center
09:39AM 36.0044 -84.9883 96° East 413 475 33,000  Level Atlanta Center
09:40AM 35.9911 -84.8444 95° East 418 481 33,000  Level Atlanta Center
09:41AM 35.9794 -84.6956 97° East 423 487 33,000  Level Atlanta Center
09:42AM 35.9656 -84.5569 97° East 423 487 33,000  Level Atlanta Center
09:43AM 35.9514 -84.4106 96° East 423 487 33,000 -60 Level Atlanta Center
09:44AM 35.9392 -84.2669 97° East 423 487 32,900 -600 Descending Atlanta Center
09:45AM 35.9247 -84.1183 97° East 423 487 31,900 -900 Descending Atlanta Center
09:46AM 35.9122 -83.9900 95° East 423 487 31,100 -900 Descending Atlanta Center
09:47AM 35.9017 -83.8414 90° East 429 494 30,100 -1,020 Descending Atlanta Center
09:48AM 35.9014 -83.6928 92° East 429 494 29,100 -600 Descending Atlanta Center
09:49AM 35.8967 -83.5414 90° East 429 494 29,000 -60 Descending Atlanta Center
09:50AM 35.8958 -83.3878 91° East 439 505 29,000  Level Atlanta Center
09:51AM 35.8931 -83.2364 86° East 439 505 29,000 -300 Level Atlanta Center
09:52AM 35.9022 -83.0878 70° East 439 505 28,400 -1,200 Descending Atlanta Center
09:53AM 35.9450 -82.9408 70° East 439 505 26,600 -1,800 Descending Atlanta Center
09:54AM 35.9853 -82.8069 68° East 426 490 24,900 -1,320 Descending Atlanta Center
09:55AM 36.0278 -82.6781 69° East 413 475 24,000 -480 Descending Atlanta Center
09:56AM 36.0681 -82.5464 110° East 406 467 24,000 -360 Level Atlanta Center
09:57AM 36.0308 -82.4186 122° Southeast 376 433 23,300 -1,380 Descending Atlanta Center
09:58AM 35.9708 -82.2992 122° Southeast 390 449 21,300 -2,100 Descending Atlanta Center
09:59AM 35.9086 -82.1750 122° Southeast 385 443 19,100 -2,100 Descending Atlanta Center
10:00AM 35.8525 -82.0633 122° Southeast 385 443 17,200 -1,980 Descending Atlanta Center
10:01AM 35.7964 -81.9522 124° Southeast 385 443 15,200 -2,040 Descending Atlanta Center
10:02AM 35.7406 -81.8486 122° Southeast 378 435 13,200 -2,040 Descending Atlanta Center
10:03AM 35.7036 -81.7756 124° Southeast 360 414 11,700 -1,680 Descending Atlanta Center
10:03AM 35.6692 -81.7125 120° Southeast 353 406 11,000 -600 Descending Atlanta Center
10:04AM 35.6408 -81.6519 125° Southeast 337 388 11,000  Level Atlanta Center
10:05AM 35.5933 -81.5692 122° Southeast 307 353 11,000 -120 Level Atlanta Center
10:06AM 35.5497 -81.4836 74° East 301 346 10,800 -660 Descending Atlanta Center
10:07AM 35.5689 -81.3989 67° East 265 305 9,700 -900 Descending Atlanta Center
10:08AM 35.5864 -81.3472 68° East 282 325 9,500 -600 Descending Atlanta Center
10:08AM 35.5964 -81.3161 68° East 260 299 9,100 -1,200 Descending Atlanta Center
10:09AM 35.6119 -81.2697 76° East 240 276 8,300 -1,320 Descending Atlanta Center
10:10AM 35.6289 -81.1847 106° East 244 281 7,100 -1,140 Descending Atlanta Center
10:11AM 35.6103 -81.1064 120° Southeast 238 274 6,100 -600 Descending Atlanta Center
10:12AM 35.5772 -81.0361 150° Southeast 239 275 6,000 -180 Descending Atlanta Center
10:13AM 35.5200 -80.9947 179° South 195 224 5,800 -840 Descending Atlanta Center
10:14AM 35.4739 -80.9939 175° South 184 212 4,300 -900 Descending Atlanta Center
10:15AM 35.4194 -80.9883 175° South 184 212 4,000 -360 Descending Atlanta Center
10:16AM 35.3694 -80.9825 175° South 181 208 3,600 -420 Descending Atlanta Center